sensor_id;sensor_type;location;lat;lon;timestamp;P1;durP1;ratioP1;P2;durP2;ratioP2
27612;SDS011;15036;48.094;-1.690;2022-10-26T01:48:07;10.23;;;2.65;;
27612;SDS011;15036;48.094;-1.690;2022-10-26T01:50:36;14.93;;;2.53;;
27612;SDS011;15036;48.094;-1.690;2022-10-26T01:53:04;9.23;;;2.10;;
27612;SDS011;15036;48.094;-1.690;2022-10-26T01:55:39;11.77;;;2.10;;
27612;SDS011;15036;48.094;-1.690;2022-10-26T02:01:05;11.80;;;2.22;;
27612;SDS011;15036;48.094;-1.690;2022-10-26T02:03:49;10.98;;;1.95;;
27612;SDS011;15036;48.094;-1.690;2022-10-26T02:06:18;7.10;;;1.75;;
27612;SDS011;15036;48.094;-1.690;2022-10-26T02:11:45;11.45;;;2.22;;
27612;SDS011;15036;48.094;-1.690;2022-10-26T02:20:03;9.07;;;1.90;;
27612;SDS011;15036;48.094;-1.690;2022-10-26T02:22:35;9.20;;;1.95;;
27612;SDS011;15036;48.094;-1.690;2022-10-26T02:25:05;12.15;;;1.83;;
27612;SDS011;15036;48.094;-1.690;2022-10-26T02:27:36;10.00;;;2.03;;
27612;SDS011;15036;48.094;-1.690;2022-10-26T02:30:08;13.68;;;2.35;;
27612;SDS011;15036;48.094;-1.690;2022-10-26T02:32:36;13.27;;;2.28;;
27612;SDS011;15036;48.094;-1.690;2022-10-26T02:35:04;11.77;;;1.95;;
27612;SDS011;15036;48.094;-1.690;2022-10-26T02:37:31;15.48;;;2.13;;
27612;SDS011;15036;48.094;-1.690;2022-10-26T02:39:58;8.88;;;2.10;;
27612;SDS011;15036;48.094;-1.690;2022-10-26T02:42:26;10.63;;;2.38;;
27612;SDS011;15036;48.094;-1.690;2022-10-26T02:44:56;12.13;;;2.50;;
27612;SDS011;15036;48.094;-1.690;2022-10-26T02:47:27;12.20;;;2.65;;
27612;SDS011;15036;48.094;-1.690;2022-10-26T02:49:53;10.95;;;2.53;;
27612;SDS011;15036;48.094;-1.690;2022-10-26T02:52:23;13.95;;;2.55;;
27612;SDS011;15036;48.094;-1.690;2022-10-26T02:55:45;12.95;;;2.60;;
27612;SDS011;15036;48.094;-1.690;2022-10-26T02:57:53;12.27;;;2.97;;
27612;SDS011;15036;48.094;-1.690;2022-10-26T03:00:22;14.70;;;2.90;;
27612;SDS011;15036;48.094;-1.690;2022-10-26T03:02:50;17.08;;;2.92;;
27612;SDS011;15036;48.094;-1.690;2022-10-26T03:05:19;14.07;;;2.85;;
27612;SDS011;15036;48.094;-1.690;2022-10-26T03:07:47;13.55;;;2.83;;
27612;SDS011;15036;48.094;-1.690;2022-10-26T03:10:12;15.90;;;3.17;;
27612;SDS011;15036;48.094;-1.690;2022-10-26T03:12:38;18.75;;;2.83;;
27612;SDS011;15036;48.094;-1.690;2022-10-26T03:15:03;15.05;;;3.25;;
27612;SDS011;15036;48.094;-1.690;2022-10-26T03:17:29;14.10;;;2.60;;
27612;SDS011;15036;48.094;-1.690;2022-10-26T03:19:55;19.20;;;3.15;;
27612;SDS011;15036;48.094;-1.690;2022-10-26T03:22:20;16.65;;;3.50;;
27612;SDS011;15036;48.094;-1.690;2022-10-26T03:24:46;15.77;;;3.75;;
27612;SDS011;15036;48.094;-1.690;2022-10-26T03:27:12;18.05;;;3.35;;
27612;SDS011;15036;48.094;-1.690;2022-10-26T03:29:38;19.88;;;3.75;;
27612;SDS011;15036;48.094;-1.690;2022-10-26T03:32:03;18.73;;;3.83;;
27612;SDS011;15036;48.094;-1.690;2022-10-26T03:34:29;20.90;;;3.70;;
27612;SDS011;15036;48.094;-1.690;2022-10-26T03:36:54;16.20;;;2.95;;
27612;SDS011;15036;48.094;-1.690;2022-10-26T03:39:19;24.13;;;3.80;;
27612;SDS011;15036;48.094;-1.690;2022-10-26T03:41:45;21.23;;;3.67;;
27612;SDS011;15036;48.094;-1.690;2022-10-26T03:44:11;17.65;;;3.50;;
27612;SDS011;15036;48.094;-1.690;2022-10-26T03:46:37;22.63;;;4.03;;
27612;SDS011;15036;48.094;-1.690;2022-10-26T03:49:02;18.08;;;3.60;;
27612;SDS011;15036;48.094;-1.690;2022-10-26T03:51:28;20.75;;;3.80;;
27612;SDS011;15036;48.094;-1.690;2022-10-26T03:53:53;19.20;;;3.55;;
27612;SDS011;15036;48.094;-1.690;2022-10-26T03:56:18;21.75;;;4.25;;
27612;SDS011;15036;48.094;-1.690;2022-10-26T03:58:44;18.50;;;4.05;;
27612;SDS011;15036;48.094;-1.690;2022-10-26T04:01:09;21.40;;;3.70;;
27612;SDS011;15036;48.094;-1.690;2022-10-26T04:03:34;18.67;;;4.00;;
27612;SDS011;15036;48.094;-1.690;2022-10-26T04:06:00;20.52;;;3.85;;
27612;SDS011;15036;48.094;-1.690;2022-10-26T04:08:26;26.60;;;4.18;;
27612;SDS011;15036;48.094;-1.690;2022-10-26T04:10:51;16.77;;;3.33;;
27612;SDS011;15036;48.094;-1.690;2022-10-26T04:13:16;20.35;;;3.85;;
27612;SDS011;15036;48.094;-1.690;2022-10-26T04:15:42;17.67;;;3.80;;
27612;SDS011;15036;48.094;-1.690;2022-10-26T04:18:07;21.33;;;3.58;;
27612;SDS011;15036;48.094;-1.690;2022-10-26T04:20:33;20.45;;;3.67;;
27612;SDS011;15036;48.094;-1.690;2022-10-26T04:23:04;22.02;;;3.42;;
27612;SDS011;15036;48.094;-1.690;2022-10-26T04:25:31;17.55;;;3.30;;
27612;SDS011;15036;48.094;-1.690;2022-10-26T04:27:57;22.38;;;3.42;;
27612;SDS011;15036;48.094;-1.690;2022-10-26T04:30:23;13.88;;;3.00;;
27612;SDS011;15036;48.094;-1.690;2022-10-26T04:32:49;18.80;;;3.35;;
27612;SDS011;15036;48.094;-1.690;2022-10-26T04:35:15;14.95;;;3.15;;
27612;SDS011;15036;48.094;-1.690;2022-10-26T04:37:40;21.38;;;3.67;;
27612;SDS011;15036;48.094;-1.690;2022-10-26T04:40:05;17.27;;;3.45;;
27612;SDS011;15036;48.094;-1.690;2022-10-26T04:42:38;15.93;;;3.33;;
27612;SDS011;15036;48.094;-1.690;2022-10-26T04:45:07;17.55;;;3.63;;
27612;SDS011;15036;48.094;-1.690;2022-10-26T04:47:33;17.65;;;3.22;;
27612;SDS011;15036;48.094;-1.690;2022-10-26T04:49:58;23.60;;;3.35;;
27612;SDS011;15036;48.094;-1.690;2022-10-26T04:52:24;17.90;;;3.92;;
27612;SDS011;15036;48.094;-1.690;2022-10-26T04:54:49;19.77;;;2.90;;
27612;SDS011;15036;48.094;-1.690;2022-10-26T04:57:14;14.38;;;3.17;;
27612;SDS011;15036;48.094;-1.690;2022-10-26T04:59:40;18.13;;;3.35;;
27612;SDS011;15036;48.094;-1.690;2022-10-26T05:02:05;16.52;;;2.90;;
27612;SDS011;15036;48.094;-1.690;2022-10-26T05:04:30;18.10;;;3.10;;
27612;SDS011;15036;48.094;-1.690;2022-10-26T05:06:55;21.67;;;3.20;;
27612;SDS011;15036;48.094;-1.690;2022-10-26T05:09:21;22.17;;;3.45;;
27612;SDS011;15036;48.094;-1.690;2022-10-26T05:11:46;18.95;;;3.30;;
27612;SDS011;15036;48.094;-1.690;2022-10-26T05:14:11;21.38;;;3.75;;
27612;SDS011;15036;48.094;-1.690;2022-10-26T05:16:37;18.92;;;3.38;;
27612;SDS011;15036;48.094;-1.690;2022-10-26T05:19:02;22.58;;;3.60;;
27612;SDS011;15036;48.094;-1.690;2022-10-26T05:21:28;13.70;;;3.00;;
27612;SDS011;15036;48.094;-1.690;2022-10-26T05:23:54;17.70;;;3.35;;
27612;SDS011;15036;48.094;-1.690;2022-10-26T05:26:20;13.55;;;3.15;;
27612;SDS011;15036;48.094;-1.690;2022-10-26T05:28:46;14.77;;;3.05;;
27612;SDS011;15036;48.094;-1.690;2022-10-26T05:31:12;15.25;;;3.00;;
27612;SDS011;15036;48.094;-1.690;2022-10-26T05:33:37;19.20;;;3.03;;
27612;SDS011;15036;48.094;-1.690;2022-10-26T05:36:03;16.40;;;3.08;;
27612;SDS011;15036;48.094;-1.690;2022-10-26T05:38:28;18.83;;;3.22;;
27612;SDS011;15036;48.094;-1.690;2022-10-26T05:40:54;16.45;;;3.22;;
27612;SDS011;15036;48.094;-1.690;2022-10-26T05:43:20;13.65;;;2.80;;
27612;SDS011;15036;48.094;-1.690;2022-10-26T05:45:46;14.70;;;2.90;;
27612;SDS011;15036;48.094;-1.690;2022-10-26T05:48:13;16.40;;;3.08;;
27612;SDS011;15036;48.094;-1.690;2022-10-26T05:50:38;16.02;;;3.30;;
27612;SDS011;15036;48.094;-1.690;2022-10-26T05:53:04;15.23;;;2.75;;
27612;SDS011;15036;48.094;-1.690;2022-10-26T05:55:29;16.38;;;2.70;;
27612;SDS011;15036;48.094;-1.690;2022-10-26T05:57:55;13.85;;;2.58;;
27612;SDS011;15036;48.094;-1.690;2022-10-26T06:00:22;15.45;;;3.00;;
27612;SDS011;15036;48.094;-1.690;2022-10-26T06:05:40;14.85;;;2.63;;
27612;SDS011;15036;48.094;-1.690;2022-10-26T06:08:23;15.32;;;3.00;;
27612;SDS011;15036;48.094;-1.690;2022-10-26T06:10:51;14.68;;;2.72;;
27612;SDS011;15036;48.094;-1.690;2022-10-26T06:13:18;12.60;;;2.75;;
27612;SDS011;15036;48.094;-1.690;2022-10-26T06:18:28;13.82;;;2.70;;
27612;SDS011;15036;48.094;-1.690;2022-10-26T06:21:08;15.27;;;2.55;;
27612;SDS011;15036;48.094;-1.690;2022-10-26T06:24:02;12.52;;;2.53;;
27612;SDS011;15036;48.094;-1.690;2022-10-26T06:26:52;14.95;;;2.78;;
27612;SDS011;15036;48.094;-1.690;2022-10-26T06:32:35;15.23;;;3.22;;
27612;SDS011;15036;48.094;-1.690;2022-10-26T06:37:59;14.00;;;2.92;;
27612;SDS011;15036;48.094;-1.690;2022-10-26T06:40:29;12.95;;;2.88;;
27612;SDS011;15036;48.094;-1.690;2022-10-26T06:42:58;12.52;;;2.60;;
27612;SDS011;15036;48.094;-1.690;2022-10-26T06:45:24;16.40;;;2.90;;
27612;SDS011;15036;48.094;-1.690;2022-10-26T06:50:49;16.55;;;3.13;;
27612;SDS011;15036;48.094;-1.690;2022-10-26T06:55:53;11.50;;;2.40;;
27612;SDS011;15036;48.094;-1.690;2022-10-26T06:58:22;13.02;;;2.80;;
27612;SDS011;15036;48.094;-1.690;2022-10-26T07:00:52;14.98;;;2.92;;
27612;SDS011;15036;48.094;-1.690;2022-10-26T07:03:19;12.35;;;2.53;;
27612;SDS011;15036;48.094;-1.690;2022-10-26T07:05:44;14.82;;;2.83;;
27612;SDS011;15036;48.094;-1.690;2022-10-26T07:08:10;14.35;;;3.13;;
27612;SDS011;15036;48.094;-1.690;2022-10-26T07:10:36;15.93;;;3.20;;
27612;SDS011;15036;48.094;-1.690;2022-10-26T07:13:05;15.23;;;3.17;;
27612;SDS011;15036;48.094;-1.690;2022-10-26T07:15:32;13.95;;;2.97;;
27612;SDS011;15036;48.094;-1.690;2022-10-26T07:18:02;16.63;;;2.90;;
27612;SDS011;15036;48.094;-1.690;2022-10-26T07:20:30;18.05;;;3.53;;
27612;SDS011;15036;48.094;-1.690;2022-10-26T07:22:56;17.42;;;2.65;;
27612;SDS011;15036;48.094;-1.690;2022-10-26T07:25:22;12.05;;;2.67;;
27612;SDS011;15036;48.094;-1.690;2022-10-26T07:27:49;15.88;;;2.90;;
27612;SDS011;15036;48.094;-1.690;2022-10-26T07:30:15;16.73;;;3.05;;
27612;SDS011;15036;48.094;-1.690;2022-10-26T07:32:40;15.52;;;3.22;;
27612;SDS011;15036;48.094;-1.690;2022-10-26T07:35:06;13.60;;;2.75;;
27612;SDS011;15036;48.094;-1.690;2022-10-26T07:37:32;15.40;;;3.10;;
27612;SDS011;15036;48.094;-1.690;2022-10-26T07:39:57;15.10;;;3.28;;
27612;SDS011;15036;48.094;-1.690;2022-10-26T07:42:22;14.75;;;2.97;;
27612;SDS011;15036;48.094;-1.690;2022-10-26T07:44:48;16.77;;;2.97;;
27612;SDS011;15036;48.094;-1.690;2022-10-26T07:47:13;19.55;;;3.17;;
27612;SDS011;15036;48.094;-1.690;2022-10-26T07:49:38;13.55;;;2.83;;
27612;SDS011;15036;48.094;-1.690;2022-10-26T07:52:04;18.48;;;3.47;;
27612;SDS011;15036;48.094;-1.690;2022-10-26T07:54:30;14.57;;;3.08;;
27612;SDS011;15036;48.094;-1.690;2022-10-26T07:56:56;14.68;;;2.92;;
27612;SDS011;15036;48.094;-1.690;2022-10-26T07:59:22;15.10;;;2.50;;
27612;SDS011;15036;48.094;-1.690;2022-10-26T08:01:47;19.58;;;3.42;;
27612;SDS011;15036;48.094;-1.690;2022-10-26T08:04:13;18.50;;;3.40;;
27612;SDS011;15036;48.094;-1.690;2022-10-26T08:06:38;14.05;;;3.25;;
27612;SDS011;15036;48.094;-1.690;2022-10-26T08:09:04;11.13;;;3.10;;
27612;SDS011;15036;48.094;-1.690;2022-10-26T08:11:29;15.20;;;2.78;;
27612;SDS011;15036;48.094;-1.690;2022-10-26T08:13:55;14.95;;;3.20;;
27612;SDS011;15036;48.094;-1.690;2022-10-26T08:16:20;11.27;;;2.47;;
27612;SDS011;15036;48.094;-1.690;2022-10-26T08:18:47;14.20;;;2.60;;
27612;SDS011;15036;48.094;-1.690;2022-10-26T08:21:13;12.85;;;2.92;;
27612;SDS011;15036;48.094;-1.690;2022-10-26T08:23:39;10.75;;;2.65;;
27612;SDS011;15036;48.094;-1.690;2022-10-26T08:26:04;14.07;;;2.45;;
27612;SDS011;15036;48.094;-1.690;2022-10-26T08:28:30;14.05;;;2.70;;
27612;SDS011;15036;48.094;-1.690;2022-10-26T08:30:55;14.88;;;3.00;;
27612;SDS011;15036;48.094;-1.690;2022-10-26T08:33:21;10.50;;;2.60;;
27612;SDS011;15036;48.094;-1.690;2022-10-26T08:35:48;13.63;;;3.05;;
27612;SDS011;15036;48.094;-1.690;2022-10-26T08:38:13;12.20;;;2.80;;
27612;SDS011;15036;48.094;-1.690;2022-10-26T08:40:40;18.60;;;3.20;;
27612;SDS011;15036;48.094;-1.690;2022-10-26T08:45:59;15.23;;;2.80;;
27612;SDS011;15036;48.094;-1.690;2022-10-26T08:48:34;13.90;;;2.60;;
27612;SDS011;15036;48.094;-1.690;2022-10-26T08:51:08;12.27;;;2.92;;
27612;SDS011;15036;48.094;-1.690;2022-10-26T08:53:40;11.52;;;2.70;;
27612;SDS011;15036;48.094;-1.690;2022-10-26T09:01:44;11.65;;;2.50;;
27612;SDS011;15036;48.094;-1.690;2022-10-26T09:04:10;15.07;;;2.97;;
27612;SDS011;15036;48.094;-1.690;2022-10-26T09:06:46;15.23;;;2.95;;
27612;SDS011;15036;48.094;-1.690;2022-10-26T09:17:24;13.23;;;2.45;;
27612;SDS011;15036;48.094;-1.690;2022-10-26T09:20:38;12.38;;;2.63;;
27612;SDS011;15036;48.094;-1.690;2022-10-26T09:25:50;14.07;;;2.90;;
27612;SDS011;15036;48.094;-1.690;2022-10-26T09:28:30;16.77;;;3.03;;
27612;SDS011;15036;48.094;-1.690;2022-10-26T09:30:59;13.77;;;3.10;;
27612;SDS011;15036;48.094;-1.690;2022-10-26T09:33:27;12.48;;;3.22;;
27612;SDS011;15036;48.094;-1.690;2022-10-26T09:35:56;12.85;;;2.97;;
27612;SDS011;15036;48.094;-1.690;2022-10-26T09:38:31;12.05;;;3.10;;
27612;SDS011;15036;48.094;-1.690;2022-10-26T09:41:25;12.75;;;2.80;;
27612;SDS011;15036;48.094;-1.690;2022-10-26T09:44:00;15.32;;;2.92;;
27612;SDS011;15036;48.094;-1.690;2022-10-26T09:47:06;12.20;;;2.85;;
27612;SDS011;15036;48.094;-1.690;2022-10-26T09:49:40;11.38;;;2.40;;
27612;SDS011;15036;48.094;-1.690;2022-10-26T09:52:12;16.13;;;2.58;;
27612;SDS011;15036;48.094;-1.690;2022-10-26T09:54:39;8.32;;;2.10;;
27612;SDS011;15036;48.094;-1.690;2022-10-26T09:57:04;12.27;;;2.70;;
27612;SDS011;15036;48.094;-1.690;2022-10-26T09:59:33;10.15;;;2.28;;
27612;SDS011;15036;48.094;-1.690;2022-10-26T10:05:00;7.60;;;2.45;;
27612;SDS011;15036;48.094;-1.690;2022-10-26T10:07:26;8.00;;;1.98;;
27612;SDS011;15036;48.094;-1.690;2022-10-26T10:10:05;7.97;;;1.90;;
27612;SDS011;15036;48.094;-1.690;2022-10-26T10:12:32;7.25;;;1.88;;
27612;SDS011;15036;48.094;-1.690;2022-10-26T10:14:58;9.68;;;1.98;;
27612;SDS011;15036;48.094;-1.690;2022-10-26T10:17:24;5.80;;;1.85;;
27612;SDS011;15036;48.094;-1.690;2022-10-26T10:19:50;5.88;;;1.65;;
27612;SDS011;15036;48.094;-1.690;2022-10-26T10:25:02;6.70;;;1.70;;
27612;SDS011;15036;48.094;-1.690;2022-10-26T10:27:29;6.00;;;1.52;;
27612;SDS011;15036;48.094;-1.690;2022-10-26T10:29:57;5.70;;;1.70;;
27612;SDS011;15036;48.094;-1.690;2022-10-26T10:32:37;7.10;;;1.80;;
27612;SDS011;15036;48.094;-1.690;2022-10-26T10:35:03;8.00;;;2.00;;
27612;SDS011;15036;48.094;-1.690;2022-10-26T10:37:46;5.80;;;2.20;;
27612;SDS011;15036;48.094;-1.690;2022-10-26T10:40:18;7.82;;;2.00;;
27612;SDS011;15036;48.094;-1.690;2022-10-26T10:42:47;8.05;;;2.08;;
27612;SDS011;15036;48.094;-1.690;2022-10-26T10:45:21;9.10;;;2.17;;
27612;SDS011;15036;48.094;-1.690;2022-10-26T10:50:25;6.97;;;2.03;;
27612;SDS011;15036;48.094;-1.690;2022-10-26T10:52:52;9.43;;;2.30;;
27612;SDS011;15036;48.094;-1.690;2022-10-26T10:55:36;7.40;;;1.80;;
27612;SDS011;15036;48.094;-1.690;2022-10-26T10:58:23;6.97;;;2.20;;
27612;SDS011;15036;48.094;-1.690;2022-10-26T11:00:57;5.80;;;1.85;;
27612;SDS011;15036;48.094;-1.690;2022-10-26T11:06:09;7.10;;;2.50;;
27612;SDS011;15036;48.094;-1.690;2022-10-26T11:08:56;9.05;;;3.50;;
27612;SDS011;15036;48.094;-1.690;2022-10-26T11:11:31;11.88;;;3.58;;
27612;SDS011;15036;48.094;-1.690;2022-10-26T11:16:50;7.22;;;2.75;;
27612;SDS011;15036;48.094;-1.690;2022-10-26T11:21:55;7.47;;;2.38;;
27612;SDS011;15036;48.094;-1.690;2022-10-26T11:27:04;5.25;;;1.70;;
27612;SDS011;15036;48.094;-1.690;2022-10-26T11:39:59;8.65;;;1.90;;
27612;SDS011;15036;48.094;-1.690;2022-10-26T11:45:00;7.40;;;2.20;;
27612;SDS011;15036;48.094;-1.690;2022-10-26T11:47:35;6.60;;;1.92;;
27612;SDS011;15036;48.094;-1.690;2022-10-26T11:50:18;9.55;;;2.25;;
27612;SDS011;15036;48.094;-1.690;2022-10-26T11:52:51;7.03;;;1.85;;
27612;SDS011;15036;48.094;-1.690;2022-10-26T11:57:52;6.88;;;2.10;;
27612;SDS011;15036;48.094;-1.690;2022-10-26T12:00:19;8.85;;;2.00;;
27612;SDS011;15036;48.094;-1.690;2022-10-26T12:02:49;7.43;;;2.10;;
27612;SDS011;15036;48.094;-1.690;2022-10-26T12:05:22;7.85;;;1.90;;
27612;SDS011;15036;48.094;-1.690;2022-10-26T12:07:59;8.85;;;2.20;;
27612;SDS011;15036;48.094;-1.690;2022-10-26T12:10:33;6.15;;;1.88;;
27612;SDS011;15036;48.094;-1.690;2022-10-26T12:13:17;9.75;;;2.13;;
27612;SDS011;15036;48.094;-1.690;2022-10-26T12:15:49;8.63;;;1.77;;
27612;SDS011;15036;48.094;-1.690;2022-10-26T12:18:23;7.40;;;2.28;;
27612;SDS011;15036;48.094;-1.690;2022-10-26T12:20:58;7.03;;;2.05;;
27612;SDS011;15036;48.094;-1.690;2022-10-26T12:23:29;5.47;;;2.08;;
27612;SDS011;15036;48.094;-1.690;2022-10-26T12:28:47;7.07;;;2.13;;
27612;SDS011;15036;48.094;-1.690;2022-10-26T12:31:39;9.50;;;2.10;;
27612;SDS011;15036;48.094;-1.690;2022-10-26T12:39:32;10.68;;;2.65;;
27612;SDS011;15036;48.094;-1.690;2022-10-26T12:47:10;7.90;;;2.30;;
27612;SDS011;15036;48.094;-1.690;2022-10-26T13:03:29;11.82;;;3.28;;
27612;SDS011;15036;48.094;-1.690;2022-10-26T13:08:37;9.13;;;2.13;;
27612;SDS011;15036;48.094;-1.690;2022-10-26T13:11:51;8.80;;;2.60;;
27612;SDS011;15036;48.094;-1.690;2022-10-26T13:13:51;10.82;;;2.78;;
27612;SDS011;15036;48.094;-1.690;2022-10-26T13:16:22;10.32;;;2.55;;
27612;SDS011;15036;48.094;-1.690;2022-10-26T13:18:50;8.68;;;2.38;;
27612;SDS011;15036;48.094;-1.690;2022-10-26T13:21:16;8.35;;;2.30;;
27612;SDS011;15036;48.094;-1.690;2022-10-26T13:23:44;9.50;;;2.53;;
27612;SDS011;15036;48.094;-1.690;2022-10-26T13:26:11;12.18;;;2.60;;
27612;SDS011;15036;48.094;-1.690;2022-10-26T13:33:47;12.05;;;2.70;;
27612;SDS011;15036;48.094;-1.690;2022-10-26T13:36:31;10.50;;;2.33;;
27612;SDS011;15036;48.094;-1.690;2022-10-26T13:39:03;7.57;;;1.83;;
27612;SDS011;15036;48.094;-1.690;2022-10-26T13:41:37;9.55;;;2.15;;
27612;SDS011;15036;48.094;-1.690;2022-10-26T13:44:07;10.53;;;2.57;;
27612;SDS011;15036;48.094;-1.690;2022-10-26T13:46:44;12.10;;;2.30;;
27612;SDS011;15036;48.094;-1.690;2022-10-26T13:49:18;7.07;;;1.90;;
27612;SDS011;15036;48.094;-1.690;2022-10-26T13:51:49;8.38;;;1.88;;
27612;SDS011;15036;48.094;-1.690;2022-10-26T13:55:00;9.65;;;2.45;;
27612;SDS011;15036;48.094;-1.690;2022-10-26T13:57:19;10.25;;;2.50;;
27612;SDS011;15036;48.094;-1.690;2022-10-26T13:59:49;8.85;;;2.47;;
27612;SDS011;15036;48.094;-1.690;2022-10-26T16:58:10;10.98;;;3.22;;
27612;SDS011;15036;48.094;-1.690;2022-10-26T17:00:36;11.30;;;2.65;;
27612;SDS011;15036;48.094;-1.690;2022-10-26T17:03:02;10.40;;;3.38;;
27612;SDS011;15036;48.094;-1.690;2022-10-26T17:05:28;11.18;;;2.95;;
27612;SDS011;15036;48.094;-1.690;2022-10-26T17:07:53;10.37;;;3.40;;
27612;SDS011;15036;48.094;-1.690;2022-10-26T17:10:20;10.18;;;3.60;;
27612;SDS011;15036;48.094;-1.690;2022-10-26T17:12:45;11.27;;;3.90;;
27612;SDS011;15036;48.094;-1.690;2022-10-26T17:15:11;9.73;;;3.50;;
27612;SDS011;15036;48.094;-1.690;2022-10-26T17:17:36;11.33;;;3.53;;
27612;SDS011;15036;48.094;-1.690;2022-10-26T17:20:02;9.70;;;3.27;;
27612;SDS011;15036;48.094;-1.690;2022-10-26T17:22:27;11.80;;;3.65;;
27612;SDS011;15036;48.094;-1.690;2022-10-26T17:24:53;9.00;;;3.30;;
27612;SDS011;15036;48.094;-1.690;2022-10-26T17:27:18;11.03;;;3.40;;
27612;SDS011;15036;48.094;-1.690;2022-10-26T17:29:45;9.57;;;3.40;;
27612;SDS011;15036;48.094;-1.690;2022-10-26T17:32:11;9.23;;;3.30;;
27612;SDS011;15036;48.094;-1.690;2022-10-26T17:34:38;9.60;;;3.22;;
27612;SDS011;15036;48.094;-1.690;2022-10-26T17:37:03;8.57;;;3.00;;
27612;SDS011;15036;48.094;-1.690;2022-10-26T17:39:29;9.52;;;3.33;;
27612;SDS011;15036;48.094;-1.690;2022-10-26T17:41:54;11.07;;;3.90;;
27612;SDS011;15036;48.094;-1.690;2022-10-26T17:44:19;8.30;;;3.50;;
27612;SDS011;15036;48.094;-1.690;2022-10-26T17:46:45;10.30;;;3.42;;
27612;SDS011;15036;48.094;-1.690;2022-10-26T17:49:10;10.43;;;3.67;;
27612;SDS011;15036;48.094;-1.690;2022-10-26T17:51:35;10.18;;;4.00;;
27612;SDS011;15036;48.094;-1.690;2022-10-26T17:54:01;9.30;;;4.00;;
27612;SDS011;15036;48.094;-1.690;2022-10-26T17:56:27;10.53;;;3.50;;
27612;SDS011;15036;48.094;-1.690;2022-10-26T17:58:55;9.68;;;3.92;;
27612;SDS011;15036;48.094;-1.690;2022-10-26T18:01:22;10.57;;;4.25;;
27612;SDS011;15036;48.094;-1.690;2022-10-26T18:03:49;9.85;;;3.97;;
27612;SDS011;15036;48.094;-1.690;2022-10-26T18:06:15;10.77;;;3.90;;
27612;SDS011;15036;48.094;-1.690;2022-10-26T18:08:43;9.98;;;3.85;;
27612;SDS011;15036;48.094;-1.690;2022-10-26T18:11:14;13.00;;;4.05;;
27612;SDS011;15036;48.094;-1.690;2022-10-26T18:13:44;12.67;;;4.27;;
27612;SDS011;15036;48.094;-1.690;2022-10-26T18:16:11;9.77;;;3.95;;
27612;SDS011;15036;48.094;-1.690;2022-10-26T18:18:39;8.57;;;4.25;;
27612;SDS011;15036;48.094;-1.690;2022-10-26T18:21:06;12.68;;;5.20;;
27612;SDS011;15036;48.094;-1.690;2022-10-26T18:23:33;13.45;;;5.70;;
27612;SDS011;15036;48.094;-1.690;2022-10-26T18:26:05;11.33;;;5.67;;
27612;SDS011;15036;48.094;-1.690;2022-10-26T18:28:33;15.15;;;5.90;;
27612;SDS011;15036;48.094;-1.690;2022-10-26T18:31:02;11.57;;;5.85;;
27612;SDS011;15036;48.094;-1.690;2022-10-26T18:33:29;13.75;;;6.70;;
27612;SDS011;15036;48.094;-1.690;2022-10-26T18:36:06;13.63;;;7.55;;
27612;SDS011;15036;48.094;-1.690;2022-10-26T18:38:33;16.25;;;8.20;;
27612;SDS011;15036;48.094;-1.690;2022-10-26T18:41:00;13.63;;;6.40;;
27612;SDS011;15036;48.094;-1.690;2022-10-26T18:43:26;13.73;;;6.55;;
27612;SDS011;15036;48.094;-1.690;2022-10-26T18:45:52;13.80;;;6.22;;
27612;SDS011;15036;48.094;-1.690;2022-10-26T18:48:18;11.50;;;5.78;;
27612;SDS011;15036;48.094;-1.690;2022-10-26T18:50:44;12.95;;;5.75;;
27612;SDS011;15036;48.094;-1.690;2022-10-26T18:53:09;13.90;;;6.03;;
27612;SDS011;15036;48.094;-1.690;2022-10-26T18:55:39;15.40;;;5.97;;
27612;SDS011;15036;48.094;-1.690;2022-10-26T18:58:11;11.77;;;5.47;;
27612;SDS011;15036;48.094;-1.690;2022-10-26T19:00:38;14.32;;;5.70;;
27612;SDS011;15036;48.094;-1.690;2022-10-26T19:03:05;12.13;;;5.88;;
27612;SDS011;15036;48.094;-1.690;2022-10-26T19:05:32;13.55;;;6.32;;
27612;SDS011;15036;48.094;-1.690;2022-10-26T19:08:00;14.88;;;7.85;;
27612;SDS011;15036;48.094;-1.690;2022-10-26T19:10:25;15.27;;;9.00;;
27612;SDS011;15036;48.094;-1.690;2022-10-26T19:12:51;15.18;;;8.30;;
27612;SDS011;15036;48.094;-1.690;2022-10-26T19:15:17;13.23;;;7.70;;
27612;SDS011;15036;48.094;-1.690;2022-10-26T19:17:42;15.23;;;6.90;;
27612;SDS011;15036;48.094;-1.690;2022-10-26T19:20:07;15.40;;;6.67;;
27612;SDS011;15036;48.094;-1.690;2022-10-26T19:22:36;14.10;;;5.00;;
27612;SDS011;15036;48.094;-1.690;2022-10-26T19:25:02;15.55;;;4.93;;
27612;SDS011;15036;48.094;-1.690;2022-10-26T19:27:27;12.80;;;4.70;;
27612;SDS011;15036;48.094;-1.690;2022-10-26T19:29:53;12.93;;;4.80;;
27612;SDS011;15036;48.094;-1.690;2022-10-26T19:32:18;13.50;;;5.33;;
27612;SDS011;15036;48.094;-1.690;2022-10-26T19:34:44;13.00;;;5.53;;
27612;SDS011;15036;48.094;-1.690;2022-10-26T19:37:09;14.02;;;5.30;;
27612;SDS011;15036;48.094;-1.690;2022-10-26T19:39:34;11.95;;;6.05;;
27612;SDS011;15036;48.094;-1.690;2022-10-26T19:42:00;12.13;;;5.90;;
27612;SDS011;15036;48.094;-1.690;2022-10-26T19:44:25;16.10;;;7.40;;
27612;SDS011;15036;48.094;-1.690;2022-10-26T19:46:51;13.67;;;6.10;;
27612;SDS011;15036;48.094;-1.690;2022-10-26T19:49:16;14.23;;;5.87;;
27612;SDS011;15036;48.094;-1.690;2022-10-26T19:51:42;14.23;;;6.35;;
27612;SDS011;15036;48.094;-1.690;2022-10-26T19:54:07;14.73;;;6.37;;
27612;SDS011;15036;48.094;-1.690;2022-10-26T19:56:34;14.40;;;6.25;;
27612;SDS011;15036;48.094;-1.690;2022-10-26T19:59:00;16.33;;;7.25;;
27612;SDS011;15036;48.094;-1.690;2022-10-26T20:01:26;18.77;;;8.73;;
27612;SDS011;15036;48.094;-1.690;2022-10-26T20:03:51;17.93;;;8.87;;
27612;SDS011;15036;48.094;-1.690;2022-10-26T20:06:17;22.37;;;10.00;;
27612;SDS011;15036;48.094;-1.690;2022-10-26T20:08:43;20.50;;;10.48;;
27612;SDS011;15036;48.094;-1.690;2022-10-26T20:11:11;20.15;;;10.85;;
27612;SDS011;15036;48.094;-1.690;2022-10-26T20:13:37;20.90;;;10.27;;
27612;SDS011;15036;48.094;-1.690;2022-10-26T20:16:04;17.77;;;9.30;;
27612;SDS011;15036;48.094;-1.690;2022-10-26T20:18:31;17.50;;;9.20;;
27612;SDS011;15036;48.094;-1.690;2022-10-26T20:20:56;14.80;;;7.57;;
27612;SDS011;15036;48.094;-1.690;2022-10-26T20:23:22;16.20;;;6.40;;
27612;SDS011;15036;48.094;-1.690;2022-10-26T20:25:48;11.75;;;5.55;;
27612;SDS011;15036;48.094;-1.690;2022-10-26T20:28:15;12.68;;;5.68;;
27612;SDS011;15036;48.094;-1.690;2022-10-26T20:30:41;15.07;;;6.63;;
27612;SDS011;15036;48.094;-1.690;2022-10-26T20:33:08;16.37;;;6.63;;
27612;SDS011;15036;48.094;-1.690;2022-10-26T20:35:34;12.98;;;6.20;;
27612;SDS011;15036;48.094;-1.690;2022-10-26T20:38:00;14.57;;;6.25;;
27612;SDS011;15036;48.094;-1.690;2022-10-26T20:40:26;12.37;;;6.57;;
27612;SDS011;15036;48.094;-1.690;2022-10-26T20:42:53;16.43;;;6.87;;
27612;SDS011;15036;48.094;-1.690;2022-10-26T20:45:23;29.88;;;17.75;;
27612;SDS011;15036;48.094;-1.690;2022-10-26T20:47:51;25.38;;;14.07;;
27612;SDS011;15036;48.094;-1.690;2022-10-26T20:50:18;21.92;;;12.48;;
27612;SDS011;15036;48.094;-1.690;2022-10-26T20:58:04;19.38;;;10.30;;
27612;SDS011;15036;48.094;-1.690;2022-10-26T21:00:37;18.83;;;9.73;;
27612;SDS011;15036;48.094;-1.690;2022-10-26T21:03:08;18.38;;;9.48;;
27612;SDS011;15036;48.094;-1.690;2022-10-26T21:05:33;18.63;;;9.97;;
27612;SDS011;15036;48.094;-1.690;2022-10-26T21:07:59;17.97;;;9.60;;
27612;SDS011;15036;48.094;-1.690;2022-10-26T21:10:24;19.93;;;10.00;;
27612;SDS011;15036;48.094;-1.690;2022-10-26T21:12:50;15.75;;;8.90;;
27612;SDS011;15036;48.094;-1.690;2022-10-26T21:15:15;17.83;;;8.20;;
27612;SDS011;15036;48.094;-1.690;2022-10-26T21:17:41;14.53;;;6.73;;